113 Куст

Карта отелей и гостиниц, располагающихся рядом с аэропортом 113 Куст :

1100-й км Ханты-Мансийский автономный округ - Югра 61° 19' 17.4612" N, 62° 32' 4.4412" E
113 Куст Ямало-Ненецкий автономный округ 66° 47' 4.8588" N, 79° 35' 34.9188" E
Код аэродрома ИКАО: 
HB65
Код аэродрома RU: 
ХБ65
Координаты: 
N66.78468° E079.59303°
Превышение над уровнем моря : 
46
Основная полоса: 
Курс магнитный: 
Длина основной ВПП: 
Ширина основной ВПП: 
Покрытие основной ВПП: 
Освещение ВПП: 
Тип: 
Вертодром
Класс аэродрома: 
Принадлежность: 
Статус: 
Недействующий
Сайт: 
E-mail аэродрома: 
Страна: 
Россия
Регион: 
Ямало-Ненецкий автономный округ
Город: 
Дополнительная информация: 

Найти трансфер

С помощью этой формы Вы можете найти трансфер из аэропорта 113 Куст в город, аэропорт или вокзал:

Карта места

Javascript is required to view this map.

Погода в аэропортах:

Авиационная погода в Ивано-Франковске

Регион: 
Погода METAR: 
UKLI 271030Z 09001MPS 8000 -SHRA BKN012CB BKN023 11/10 Q1007 R28/290565 NOSIG
Время наблюдения: 
2020-09-27T10:30:00Z
Температура C: 
11.0
Точка росы: 
10.0
Направление ветра: 
90
Скорость ветра (узлы): 
2
Метеорологическая видимость: 
4.97
Явления погоды: 
-SHRA
Условия полета: 
MVFR
Аэропорт подробнее: 

Авиационная погода в Куопио

Регион: 
Погода METAR: 
EFKU 271020Z AUTO 09004KT 060V130 1100 R33/P2000N BR NCD 15/12 Q1022
Время наблюдения: 
2020-09-27T10:20:00Z
Температура C: 
15.0
Точка росы: 
12.0
Направление ветра: 
90
Скорость ветра (узлы): 
4
Метеорологическая видимость: 
0.68
Явления погоды: 
BR
Условия полета: 
LIFR

Авиационная погода в аэропорту Международный

Регион: 
Погода METAR: 
UKLL 271030Z 25003MPS 220V290 9999 -SHRA BKN007 BKN020CB 09/08 Q1006 R31/290055 NOSIG
Время наблюдения: 
2020-09-27T10:30:00Z
Температура C: 
9.0
Точка росы: 
8.0
Направление ветра: 
250
Скорость ветра (узлы): 
6
Метеорологическая видимость: 
6.21
Явления погоды: 
-SHRA
Условия полета: 
IFR
Аэропорт подробнее: 

Авиационная погода в Ботсфьорде

Регион: 
Погода METAR: 
ENBS 251850Z 24021G31KT 9999 VCSH FEW030 09/05 Q0994
Время наблюдения: 
2020-09-25T18:50:00Z
Температура C: 
9.0
Точка росы: 
5.0
Направление ветра: 
240
Скорость ветра (узлы): 
21
Метеорологическая видимость: 
6.21
Явления погоды: 
VCSH
Условия полета: 
VFR